createdAt,value
2018-12-30T06:06:59.884Z,8.10
2018-12-30T06:09:27.181Z,8.10
2018-12-30T06:11:54.700Z,8.00
2018-12-30T06:14:22.493Z,8.00
2018-12-30T06:16:49.967Z,8.10
2018-12-30T06:19:17.293Z,8.00
2018-12-30T06:21:44.559Z,8.10
2018-12-30T06:24:11.935Z,8.10
2018-12-30T06:26:39.533Z,8.10
2018-12-30T06:29:06.918Z,8.20
2018-12-30T06:31:34.484Z,8.10
2018-12-30T06:34:01.842Z,8.50
2018-12-30T06:36:29.624Z,8.10
2018-12-30T06:38:57.029Z,8.20
2018-12-30T06:41:24.686Z,8.30
2018-12-30T06:43:52.332Z,8.30
2018-12-30T06:46:19.692Z,8.20
2018-12-30T06:48:47.161Z,8.20
2018-12-30T06:51:14.441Z,8.40
2018-12-30T06:53:43.135Z,8.20
2018-12-30T06:56:10.536Z,8.30
2018-12-30T06:58:37.835Z,8.30
2018-12-30T07:01:05.189Z,8.40
2018-12-30T07:03:32.619Z,8.40
2018-12-30T07:06:00.032Z,8.40
2018-12-30T07:08:27.760Z,8.40
2018-12-30T07:10:55.009Z,8.40
2018-12-30T07:13:22.369Z,8.30
2018-12-30T07:15:49.613Z,8.40
2018-12-30T07:18:16.994Z,8.30
2018-12-30T07:20:44.251Z,8.30
2018-12-30T07:23:11.700Z,8.30
2018-12-30T07:25:39.208Z,8.20
2018-12-30T07:28:06.545Z,8.10
2018-12-30T07:30:34.424Z,8.10
2018-12-30T07:33:01.756Z,8.00
2018-12-30T07:35:29.250Z,8.00
2018-12-30T07:37:56.705Z,8.00
2018-12-30T07:40:24.159Z,8.00
2018-12-30T07:42:51.508Z,8.00
2018-12-30T07:45:18.801Z,8.00
2018-12-30T07:47:46.121Z,8.00
2018-12-30T16:08:06.487Z,7.60
2018-12-30T16:10:38.707Z,7.70
2018-12-30T16:13:13.569Z,7.70
2018-12-30T16:15:46.312Z,7.70
2018-12-30T16:18:25.308Z,7.80
2018-12-30T16:20:54.947Z,7.80
2018-12-30T16:23:25.264Z,7.80
2018-12-30T16:26:03.962Z,7.80
2018-12-30T16:28:36.598Z,7.80
2018-12-30T16:31:04.899Z,7.90
2018-12-30T16:33:37.550Z,7.80
2018-12-30T16:36:09.976Z,8.00
2018-12-30T16:38:41.349Z,7.80
2018-12-30T16:41:28.993Z,7.80
2018-12-30T16:44:25.383Z,7.80
2018-12-30T16:46:56.281Z,7.80
2018-12-30T16:49:25.085Z,7.80
2018-12-30T16:51:57.191Z,7.80
2018-12-30T16:54:27.321Z,7.70
2018-12-30T16:57:04.315Z,7.70
2018-12-30T16:59:44.742Z,7.70
2018-12-30T17:02:14.269Z,7.70
2018-12-30T17:04:48.030Z,8.10
2018-12-30T17:07:15.890Z,7.80
2018-12-30T17:09:43.499Z,7.70
2018-12-30T17:12:12.771Z,7.80
2018-12-30T17:14:44.818Z,7.80
2018-12-30T17:17:13.959Z,7.80
2018-12-30T17:19:49.341Z,7.80
2018-12-30T17:22:22.430Z,7.80
2018-12-30T17:25:03.303Z,7.90
2018-12-30T17:28:02.447Z,7.80
2018-12-30T17:30:30.239Z,7.80
2018-12-30T17:32:59.202Z,7.90
2018-12-30T17:35:28.826Z,7.80
2018-12-30T17:37:56.553Z,7.80
2018-12-30T17:40:25.079Z,7.80
2018-12-30T17:42:53.301Z,7.80
2018-12-30T17:45:21.951Z,7.80
2018-12-30T17:47:49.887Z,7.70
2018-12-30T17:50:18.441Z,7.70
2018-12-30T17:52:46.353Z,7.80
2018-12-30T17:55:14.774Z,7.70
2018-12-30T17:57:54.451Z,7.70
2018-12-30T18:00:24.258Z,7.70
2018-12-30T18:02:55.141Z,7.70
2018-12-30T18:05:34.160Z,7.70
2018-12-30T18:08:05.172Z,8.20
2018-12-30T18:10:34.772Z,7.70
2018-12-30T18:13:05.049Z,7.70
2018-12-30T18:15:33.995Z,7.70
2018-12-30T18:18:04.721Z,7.70
2018-12-30T18:20:41.018Z,7.70
2018-12-30T18:23:19.139Z,7.70
2018-12-30T18:25:50.247Z,7.50
2018-12-30T18:28:19.987Z,7.70
2018-12-30T18:30:50.899Z,7.80
2018-12-30T18:33:27.373Z,7.80
2018-12-30T18:35:55.312Z,7.80
2018-12-30T18:38:35.251Z,7.80
2018-12-30T18:41:08.483Z,7.70
2018-12-30T18:43:42.676Z,7.70
2018-12-30T18:46:25.850Z,7.70
2018-12-30T18:49:04.025Z,7.70
2018-12-30T18:52:03.816Z,7.70
2018-12-30T18:54:35.398Z,7.60
2018-12-30T18:57:05.395Z,7.60
2018-12-30T18:59:50.116Z,7.60
2018-12-30T19:02:26.790Z,7.70
2018-12-30T19:08:06.345Z,7.60
2018-12-30T19:10:41.209Z,7.60
2018-12-30T19:13:10.423Z,7.60
2018-12-30T19:15:40.019Z,7.60
2018-12-30T19:18:11.217Z,7.60
2018-12-30T19:20:43.665Z,7.60
2018-12-30T19:23:15.245Z,7.60
2018-12-30T19:25:43.579Z,7.60
2018-12-30T19:28:13.197Z,7.60
2018-12-30T19:30:42.208Z,7.60
2018-12-30T19:33:12.988Z,7.60
2018-12-30T19:35:45.536Z,7.60
2018-12-30T19:38:13.882Z,7.60
2018-12-30T19:40:42.970Z,7.50
2018-12-30T19:43:36.526Z,7.50
2018-12-30T19:46:05.262Z,7.50
2018-12-30T19:48:35.911Z,7.50
2018-12-30T19:51:03.786Z,7.50
2018-12-30T19:53:32.317Z,7.50
2018-12-30T19:56:00.999Z,7.50
2018-12-30T19:58:44.691Z,7.50
2018-12-30T20:01:13.100Z,7.50
2018-12-30T20:03:43.138Z,7.50
2018-12-30T20:06:13.736Z,7.60
2018-12-30T20:08:42.751Z,7.40
2018-12-30T20:11:17.074Z,7.50
2018-12-30T20:13:49.230Z,7.50
2018-12-30T20:16:17.811Z,7.50
2018-12-30T20:19:03.209Z,7.40
2018-12-30T20:21:35.132Z,7.50
2018-12-30T20:24:03.134Z,7.50
2018-12-30T20:26:32.114Z,7.50
2018-12-30T20:29:09.717Z,7.50
2018-12-30T20:31:38.517Z,7.50
2018-12-30T20:34:09.402Z,7.50
2018-12-30T20:36:37.714Z,7.50
2018-12-30T20:39:08.085Z,7.50
2018-12-30T20:41:39.028Z,7.50
2018-12-30T20:44:07.404Z,7.50
2018-12-30T20:46:37.089Z,7.50
2018-12-30T20:49:05.000Z,7.50
2018-12-30T20:51:32.590Z,7.50
2018-12-30T20:54:00.340Z,7.50
2018-12-30T20:56:27.909Z,7.50
2018-12-30T20:58:58.574Z,7.60
2018-12-30T21:01:27.617Z,7.50
2018-12-30T21:03:55.321Z,7.50
2018-12-30T21:06:23.186Z,7.50
2018-12-30T21:08:52.538Z,7.50
2018-12-30T21:11:20.201Z,7.40
2018-12-30T21:13:47.711Z,7.50
2018-12-30T21:16:15.472Z,7.40
2018-12-30T21:18:43.652Z,7.40
2018-12-30T21:21:11.203Z,7.40
2018-12-30T21:23:39.861Z,7.40
2018-12-30T21:26:07.501Z,7.50
2018-12-30T21:28:35.095Z,7.40
2018-12-30T21:31:04.321Z,7.40
2018-12-30T21:33:32.242Z,7.40
2018-12-30T21:36:00.719Z,7.30
2018-12-30T21:38:28.504Z,7.40
2018-12-30T21:40:56.331Z,7.30
2018-12-30T21:43:24.048Z,7.40
2018-12-30T21:45:55.819Z,7.40
2018-12-30T21:48:23.459Z,7.30
2018-12-30T21:50:51.308Z,7.30
2018-12-30T21:53:19.574Z,7.30
2018-12-30T21:55:47.146Z,7.00
2018-12-30T21:58:38.450Z,7.30
2018-12-30T22:01:05.835Z,7.30
2018-12-30T22:03:33.256Z,7.30
2018-12-30T22:06:01.787Z,7.20
2018-12-30T22:08:29.094Z,7.30
2018-12-30T22:10:56.865Z,7.20
2018-12-30T22:13:24.257Z,7.30
2018-12-30T22:15:51.612Z,7.20
2018-12-30T22:18:18.946Z,7.20
2018-12-30T22:20:46.611Z,7.30
2018-12-30T22:23:13.905Z,7.30
2018-12-30T22:25:42.202Z,7.20
2018-12-30T22:28:09.786Z,7.20
2018-12-30T22:30:37.206Z,7.20
